Time;durP1;ratioP1;P1;durP2;ratioP2;P2;SDS_P1;SDS_P2;PMS_P1;PMS_P2;Temp;Humidity;BMP_temperature;BMP_pressure;BME280_temperature;BME280_humidity;BME280_pressure;Samples;Min_cycle;Max_cycle;Signal;HPM_P1;HPM_P2
2021/12/23 00:03:09;;;;;;;25.15;13.60;;;-2.20;99.90;;;;;;12594071;28;20698;-36
2021/12/23 00:09:13;;;;;;;22.88;12.73;;;-2.40;99.90;;;;;;12595498;28;20048;-36
2021/12/23 00:15:31;;;;;;;27.90;13.43;;;-2.40;99.90;;;;;;12588841;28;21797;-37
2021/12/23 00:27:55;;;;;;;23.30;12.73;;;-2.20;99.90;;;;;;12594076;28;20059;-37
2021/12/23 00:33:57;;;;;;;23.20;12.98;;;-2.10;99.90;;;;;;12590972;28;20139;-36
2021/12/23 00:39:59;;;;;;;21.45;12.73;;;-2.00;99.90;;;;;;12597590;28;20071;-38
2021/12/23 00:46:05;;;;;;;22.67;12.97;;;-2.00;99.90;;;;;;12592584;28;20799;-36
2021/12/23 00:52:08;;;;;;;25.75;14.13;;;-2.00;99.90;;;;;;12602934;28;20051;-36
2021/12/23 00:58:11;;;;;;;25.63;14.23;;;-2.00;99.90;;;;;;12604500;28;20453;-36
2021/12/23 01:04:13;;;;;;;25.52;13.55;;;-2.20;99.90;;;;;;12605299;28;20041;-38
2021/12/23 01:10:17;;;;;;;25.70;14.32;;;-2.20;99.90;;;;;;12601925;28;20552;-37
2021/12/23 01:16:37;;;;;;;22.88;13.57;;;-2.20;99.90;;;;;;12584151;28;20075;-38
2021/12/23 01:22:39;;;;;;;23.95;13.93;;;-2.20;99.90;;;;;;12603898;28;20052;-38
2021/12/23 01:28:42;;;;;;;28.38;15.10;;;-2.20;99.90;;;;;;12599349;28;20521;-36
2021/12/23 01:34:45;;;;;;;25.35;13.80;;;-2.20;99.90;;;;;;12597320;28;20052;-36
2021/12/23 01:40:47;;;;;;;23.77;13.85;;;-2.20;99.90;;;;;;12596441;28;20052;-36
2021/12/23 01:46:51;;;;;;;24.13;13.73;;;-2.20;99.90;;;;;;12601830;28;20170;-36
2021/12/23 01:52:54;;;;;;;27.13;14.73;;;-2.10;99.90;;;;;;12583680;28;20048;-38
2021/12/23 01:58:56;;;;;;;23.58;13.30;;;-2.10;99.90;;;;;;12600672;28;20056;-38
2021/12/23 02:05:00;;;;;;;24.23;13.85;;;-1.70;99.90;;;;;;12600988;28;20415;-36
2021/12/23 02:11:08;;;;;;;24.70;12.98;;;-1.50;99.90;;;;;;12596034;28;20051;-36
2021/12/23 02:17:11;;;;;;;23.90;13.07;;;-1.60;99.90;;;;;;12581502;28;20056;-37
2021/12/23 02:23:13;;;;;;;21.15;12.27;;;-1.70;99.90;;;;;;12602635;28;20046;-36
2021/12/23 02:29:17;;;;;;;25.40;14.02;;;-1.70;99.90;;;;;;12598689;28;20052;-38
2021/12/23 02:35:23;;;;;;;23.17;12.90;;;-1.80;99.90;;;;;;12595145;28;20052;-36
2021/12/23 02:41:27;;;;;;;24.70;13.45;;;-1.80;99.90;;;;;;12594751;28;20385;-37
2021/12/23 02:47:32;;;;;;;25.08;13.85;;;-1.90;99.90;;;;;;12591338;28;20147;-37
2021/12/23 02:53:36;;;;;;;26.45;14.55;;;-1.90;99.90;;;;;;12584633;28;20045;-38
2021/12/23 02:59:39;;;;;;;21.23;13.25;;;-1.90;99.90;;;;;;12599696;28;20763;-36
2021/12/23 03:05:47;;;;;;;26.30;14.82;;;-1.80;99.90;;;;;;12598028;28;20053;-37
2021/12/23 03:11:52;;;;;;;26.77;14.25;;;-1.90;99.90;;;;;;12593117;28;20055;-38
2021/12/23 03:17:59;;;;;;;24.05;14.45;;;-1.80;99.90;;;;;;12599393;28;20059;-37
2021/12/23 03:24:02;;;;;;;25.30;14.98;;;-1.80;99.90;;;;;;12593393;28;20040;-38
2021/12/23 03:30:05;;;;;;;25.80;15.13;;;-1.80;99.90;;;;;;12593408;28;20060;-37
2021/12/23 03:36:08;;;;;;;27.10;14.73;;;-1.70;99.90;;;;;;12596494;28;20085;-36
2021/12/23 03:42:11;;;;;;;26.00;15.90;;;-1.70;99.90;;;;;;12592771;28;20052;-38
2021/12/23 03:48:16;;;;;;;26.88;14.02;;;-1.70;99.90;;;;;;12598537;28;20044;-37
2021/12/23 03:54:19;;;;;;;26.10;14.67;;;-1.70;99.90;;;;;;12591148;28;20420;-36
2021/12/23 04:00:23;;;;;;;21.50;12.38;;;-1.70;99.90;;;;;;12589960;28;20866;-38
2021/12/23 04:06:26;;;;;;;24.63;15.80;;;-1.70;99.90;;;;;;12597419;28;20059;-36
2021/12/23 04:12:29;;;;;;;24.27;14.70;;;-1.70;99.90;;;;;;12593153;28;20316;-37
2021/12/23 04:18:31;;;;;;;26.63;14.73;;;-1.70;99.90;;;;;;12593682;28;20290;-37
2021/12/23 04:24:34;;;;;;;26.88;14.63;;;-1.70;99.90;;;;;;12591620;28;20493;-38
2021/12/23 04:30:36;;;;;;;25.60;14.75;;;-1.70;99.90;;;;;;12590714;28;20086;-36
2021/12/23 04:36:38;;;;;;;28.35;16.55;;;-1.70;99.90;;;;;;12591373;28;20055;-36
2021/12/23 04:42:41;;;;;;;29.38;16.83;;;-1.70;99.90;;;;;;12594848;28;20105;-37
2021/12/23 04:48:45;;;;;;;31.83;17.08;;;-1.70;99.90;;;;;;12592882;28;20067;-36
2021/12/23 04:54:48;;;;;;;27.60;16.97;;;-1.70;99.90;;;;;;12581939;28;20578;-37
2021/12/23 05:00:52;;;;;;;38.42;18.15;;;-1.60;99.90;;;;;;12598124;28;20075;-36
2021/12/23 05:06:58;;;;;;;30.73;17.38;;;-1.50;99.90;;;;;;12575306;28;20040;-36
2021/12/23 05:13:03;;;;;;;32.78;17.75;;;-1.40;99.90;;;;;;12593083;28;20047;-36
2021/12/23 05:19:06;;;;;;;29.67;17.23;;;-1.40;99.90;;;;;;12575965;28;20059;-37
2021/12/23 05:25:10;;;;;;;31.50;17.13;;;-1.30;99.90;;;;;;12596933;28;20055;-36
2021/12/23 05:31:12;;;;;;;28.33;16.85;;;-1.30;99.90;;;;;;12575593;28;20507;-37
2021/12/23 05:37:17;;;;;;;28.48;16.52;;;-1.20;99.90;;;;;;12584166;28;20056;-38
2021/12/23 05:43:21;;;;;;;26.73;16.77;;;-1.20;99.90;;;;;;12601945;28;21679;-36
2021/12/23 05:49:24;;;;;;;29.25;17.08;;;-1.30;99.90;;;;;;12599088;28;20047;-37
2021/12/23 05:55:27;;;;;;;35.75;17.25;;;-1.30;99.90;;;;;;12597887;28;20072;-38
2021/12/23 06:01:31;;;;;;;32.17;18.03;;;-1.20;99.90;;;;;;12599847;28;20041;-38
2021/12/23 06:07:38;;;;;;;32.17;18.33;;;-1.20;99.90;;;;;;12601387;28;20086;-37
2021/12/23 06:13:47;;;;;;;29.13;17.27;;;-1.00;99.90;;;;;;12596875;28;20087;-38
2021/12/23 06:19:48;;;;;;;29.75;17.08;;;-0.90;99.90;;;;;;12595434;28;20076;-38
2021/12/23 06:25:55;;;;;;;30.83;16.95;;;-0.90;99.90;;;;;;12578497;28;20155;-38
2021/12/23 06:31:57;;;;;;;33.80;18.15;;;-0.90;99.90;;;;;;12596696;28;20048;-38
2021/12/23 06:38:05;;;;;;;29.88;16.73;;;-1.00;99.90;;;;;;12597999;28;20044;-36
2021/12/23 06:44:07;;;;;;;28.45;17.10;;;-1.00;99.90;;;;;;12594578;28;20380;-36
2021/12/23 06:50:10;;;;;;;30.13;16.63;;;-0.90;99.90;;;;;;12595623;28;20536;-36
2021/12/23 06:56:16;;;;;;;32.55;17.25;;;-0.90;99.90;;;;;;12592808;28;20079;-36
2021/12/23 07:02:19;;;;;;;28.30;16.38;;;-0.70;99.90;;;;;;12598354;28;20063;-36
2021/12/23 07:08:27;;;;;;;28.05;16.05;;;-0.60;99.90;;;;;;12595435;28;20051;-37
2021/12/23 07:14:29;;;;;;;28.58;16.15;;;-0.60;99.90;;;;;;12588153;28;20081;-37
2021/12/23 07:20:31;;;;;;;27.38;16.60;;;-0.60;99.90;;;;;;12591769;28;20044;-37
2021/12/23 07:26:35;;;;;;;30.85;16.63;;;-0.60;99.90;;;;;;12594434;28;20052;-36
2021/12/23 07:32:37;;;;;;;27.52;16.95;;;-0.50;99.90;;;;;;12589391;28;20419;-36
2021/12/23 07:38:40;;;;;;;29.17;16.52;;;-0.50;99.90;;;;;;12593618;28;20048;-36
2021/12/23 07:44:43;;;;;;;27.23;16.50;;;-0.60;99.90;;;;;;12591015;28;20048;-36
2021/12/23 07:50:45;;;;;;;28.70;17.48;;;-0.50;99.90;;;;;;12595817;28;20037;-36
2021/12/23 07:56:47;;;;;;;30.70;17.95;;;-0.50;99.90;;;;;;12593847;28;20503;-36
2021/12/23 08:02:50;;;;;;;32.63;18.13;;;-0.60;99.90;;;;;;12588110;28;20120;-36
2021/12/23 08:08:52;;;;;;;31.92;18.08;;;-0.60;99.90;;;;;;12594982;28;20140;-37
2021/12/23 08:14:54;;;;;;;35.42;19.05;;;-0.60;99.90;;;;;;12590790;28;20086;-36
2021/12/23 08:21:11;;;;;;;30.30;17.48;;;-0.60;99.90;;;;;;12592685;28;20082;-38
2021/12/23 08:27:15;;;;;;;34.63;19.00;;;-0.60;99.90;;;;;;12590114;28;20132;-36
2021/12/23 08:33:18;;;;;;;33.90;19.88;;;-0.60;99.90;;;;;;12549503;28;20044;-37
2021/12/23 08:39:20;;;;;;;35.45;19.73;;;-0.60;99.90;;;;;;12590443;28;20066;-36
2021/12/23 08:45:25;;;;;;;34.10;19.02;;;-0.50;99.90;;;;;;12579794;28;20052;-37
2021/12/23 08:51:27;;;;;;;;;;;-0.40;99.90;;;;;;12593364;28;20051;-38
2021/12/23 08:57:29;;;;;;;32.83;18.88;;;-0.40;99.90;;;;;;12590079;28;19928;-38
2021/12/23 09:03:34;;;;;;;35.38;20.23;;;-0.40;99.90;;;;;;12591386;28;20048;-35
2021/12/23 09:09:37;;;;;;;33.72;19.38;;;-0.30;99.90;;;;;;12597149;28;20084;-35
2021/12/23 09:15:40;;;;;;;32.00;18.98;;;-0.30;99.90;;;;;;12599319;28;20051;-37
2021/12/23 09:21:44;;;;;;;33.58;19.20;;;-0.30;99.90;;;;;;12597945;28;20063;-38
2021/12/23 09:33:59;;;;;;;29.38;17.63;;;-0.30;99.90;;;;;;12504197;28;20049;-38
2021/12/23 09:40:03;;;;;;;32.28;18.33;;;-0.20;99.90;;;;;;12505339;28;20137;-37
2021/12/23 09:46:09;;;;;;;31.63;18.07;;;-0.20;99.90;;;;;;12506180;28;20489;-38
2021/12/23 09:52:11;;;;;;;31.98;18.83;;;-0.10;99.90;;;;;;12504059;28;20331;-36
2021/12/23 09:58:13;;;;;;;30.90;18.55;;;-0.10;99.90;;;;;;12506031;28;20049;-36
2021/12/23 10:04:15;;;;;;;29.20;18.20;;;0.00;99.90;;;;;;12500622;28;20413;-35
2021/12/23 10:10:24;;;;;;;32.72;18.35;;;0.00;99.90;;;;;;12500486;28;20046;-36
2021/12/23 10:42:52;;;;;;;29.30;17.00;;;0.30;99.90;;;;;;12542557;28;20681;-36
2021/12/23 11:02:09;;;;;;;30.50;17.40;;;0.50;99.90;;;;;;12528097;28;20045;-37
2021/12/23 11:40:06;;;;;;;32.53;17.77;;;0.70;99.90;;;;;;12536230;28;20105;-36
2021/12/23 11:46:08;;;;;;;32.65;17.88;;;0.70;99.90;;;;;;12542916;28;20057;-37
2021/12/23 11:52:10;;;;;;;29.55;17.75;;;0.70;99.90;;;;;;12538182;28;20045;-38
2021/12/23 11:58:14;;;;;;;32.60;18.10;;;0.80;99.90;;;;;;12535109;28;20060;-38
2021/12/23 12:04:28;;;;;;;31.70;18.58;;;0.80;99.90;;;;;;12536655;28;20045;-38
2021/12/23 12:10:32;;;;;;;31.77;17.73;;;0.80;99.90;;;;;;12535480;28;20049;-38
2021/12/23 12:16:36;;;;;;;35.25;17.70;;;0.80;99.90;;;;;;12538863;28;20139;-38
2021/12/23 12:22:59;;;;;;;34.80;16.92;;;0.80;99.90;;;;;;12536359;28;20489;-37
2021/12/23 12:29:04;;;;;;;34.80;17.67;;;0.80;99.90;;;;;;12534722;28;20049;-36
2021/12/23 12:35:14;;;;;;;29.85;18.60;;;0.80;99.90;;;;;;12538175;28;20136;-36
2021/12/23 12:41:36;;;;;;;34.50;18.60;;;0.80;99.90;;;;;;12527154;28;20049;-37
2021/12/23 12:47:52;;;;;;;32.33;17.48;;;0.90;99.90;;;;;;12550627;28;20048;-36
2021/12/23 12:54:03;;;;;;;28.90;16.70;;;0.90;99.90;;;;;;12549324;28;20071;-37
2021/12/23 13:00:21;;;;;;;30.20;17.05;;;0.90;99.90;;;;;;12550669;28;20056;-37
2021/12/23 13:06:35;;;;;;;28.98;16.52;;;0.90;99.90;;;;;;12547650;28;20048;-36
2021/12/23 13:12:51;;;;;;;28.27;15.68;;;1.10;99.90;;;;;;12546845;28;20394;-36
2021/12/23 13:19:18;;;;;;;27.92;15.00;;;1.20;99.90;;;;;;12549001;28;20111;-37
2021/12/23 13:25:20;;;;;;;28.15;15.27;;;1.30;99.90;;;;;;12549902;28;20044;-36
2021/12/23 13:31:27;;;;;;;25.48;14.13;;;1.30;99.90;;;;;;12549376;28;20114;-36
2021/12/23 13:37:31;;;;;;;23.65;13.13;;;1.40;99.90;;;;;;12548406;28;20152;-36
2021/12/23 13:43:33;;;;;;;25.13;13.48;;;1.50;99.90;;;;;;12546249;28;20045;-35
2021/12/23 13:49:48;;;;;;;21.10;12.77;;;1.60;99.90;;;;;;12524207;28;20046;-38
2021/12/23 13:55:52;;;;;;;23.38;13.38;;;1.70;99.90;;;;;;12494408;28;20060;-36
2021/12/23 14:02:03;;;;;;;25.77;13.13;;;1.80;99.90;;;;;;12492390;28;20088;-38
2021/12/23 14:08:06;;;;;;;25.13;13.55;;;1.80;99.90;;;;;;12497451;28;20038;-36
2021/12/23 14:14:18;;;;;;;22.75;12.88;;;1.80;99.90;;;;;;12494852;28;20411;-35
2021/12/23 14:26:59;;;;;;;23.20;13.02;;;1.90;99.90;;;;;;12422624;28;20049;-38
2021/12/23 14:33:14;;;;;;;19.58;11.18;;;2.00;99.90;;;;;;12516386;28;20094;-36
2021/12/23 14:39:26;;;;;;;20.42;11.60;;;2.10;99.90;;;;;;12523883;28;20064;-36
2021/12/23 14:45:30;;;;;;;20.70;12.10;;;2.10;99.90;;;;;;12540756;28;20048;-36
2021/12/23 14:51:36;;;;;;;21.70;12.65;;;2.10;99.90;;;;;;12541540;28;20041;-38
2021/12/23 14:57:49;;;;;;;21.30;11.70;;;2.20;99.90;;;;;;12542115;28;20056;-39
2021/12/23 15:04:14;;;;;;;20.92;12.43;;;2.30;99.90;;;;;;12544086;28;20048;-39
2021/12/23 15:10:34;;;;;;;;;;;2.40;99.90;;;;;;12519375;28;20048;-39
2021/12/23 15:16:37;;;;;;;20.73;12.32;;;2.40;99.90;;;;;;12544702;28;19960;-38
2021/12/23 15:22:44;;;;;;;21.73;11.57;;;2.50;99.90;;;;;;12540471;28;20094;-36
2021/12/23 15:29:10;;;;;;;23.17;12.45;;;2.60;99.90;;;;;;12537719;28;20125;-39
2021/12/23 15:35:19;;;;;;;20.92;11.52;;;2.80;99.90;;;;;;12536953;28;20075;-39
2021/12/23 15:41:22;;;;;;;22.30;12.02;;;2.90;99.90;;;;;;12541019;28;20045;-37
2021/12/23 15:47:25;;;;;;;22.92;12.77;;;3.00;99.90;;;;;;12542155;28;20037;-39
2021/12/23 15:53:27;;;;;;;25.63;12.10;;;3.10;99.90;;;;;;12520949;28;20131;-37
2021/12/23 15:59:30;;;;;;;22.75;12.48;;;3.10;99.90;;;;;;12544818;28;20084;-37
2021/12/23 16:11:39;;;;;;;21.08;11.80;;;3.30;99.90;;;;;;12538697;28;20612;-39
2021/12/23 16:17:44;;;;;;;23.88;12.93;;;3.30;99.90;;;;;;12541464;28;20432;-38
2021/12/23 16:23:46;;;;;;;23.63;12.80;;;3.30;99.90;;;;;;12537906;28;20045;-37
2021/12/23 16:30:09;;;;;;;21.88;12.20;;;3.40;99.90;;;;;;12540979;28;20783;-39
2021/12/23 16:36:33;;;;;;;21.35;12.35;;;3.30;99.90;;;;;;12540114;28;20058;-38
2021/12/23 16:42:35;;;;;;;27.05;13.38;;;3.30;99.90;;;;;;12539243;28;20048;-37
2021/12/23 16:48:37;;;;;;;22.85;13.20;;;3.50;99.90;;;;;;12540211;28;20075;-37
2021/12/23 16:54:57;;;;;;;24.65;13.80;;;3.50;99.90;;;;;;12539180;28;20399;-39
2021/12/23 17:01:00;;;;;;;23.75;14.10;;;3.60;99.90;;;;;;12543844;28;20053;-40
2021/12/23 17:07:02;;;;;;;28.33;14.40;;;3.60;99.90;;;;;;12540322;28;20044;-36
2021/12/23 17:13:05;;;;;;;24.35;14.13;;;3.60;99.90;;;;;;12539503;28;20135;-37
2021/12/23 17:19:11;;;;;;;31.10;14.95;;;3.60;99.90;;;;;;12542103;28;20060;-40
2021/12/23 17:25:14;;;;;;;28.38;15.35;;;3.60;99.90;;;;;;12537662;28;20036;-39
2021/12/23 17:31:17;;;;;;;28.90;15.35;;;3.60;99.90;;;;;;12529158;28;20489;-38
2021/12/23 17:37:21;;;;;;;28.35;14.77;;;3.60;99.90;;;;;;12544184;28;20519;-39
2021/12/23 17:43:23;;;;;;;30.80;16.25;;;3.50;99.90;;;;;;12545414;28;20048;-39
2021/12/23 17:49:25;;;;;;;32.45;17.55;;;3.50;99.90;;;;;;12541616;28;20055;-37
2021/12/23 17:55:28;;;;;;;32.22;18.27;;;3.50;99.90;;;;;;12536949;28;20760;-39
2021/12/23 18:01:32;;;;;;;34.77;18.90;;;3.50;99.90;;;;;;12526299;28;20085;-37
2021/12/23 18:07:35;;;;;;;33.33;17.83;;;3.50;99.90;;;;;;12533132;28;20353;-39
2021/12/23 18:13:37;;;;;;;32.25;18.27;;;3.50;99.90;;;;;;12533560;28;20489;-37
2021/12/23 18:19:39;;;;;;;31.25;18.02;;;3.60;99.90;;;;;;12538228;28;20148;-38
2021/12/23 18:25:44;;;;;;;34.75;19.15;;;3.70;99.90;;;;;;12535299;28;20052;-39
2021/12/23 18:31:48;;;;;;;36.25;21.42;;;3.70;99.90;;;;;;12533183;28;20055;-38
2021/12/23 18:37:55;;;;;;;43.00;22.97;;;3.80;99.90;;;;;;12521419;28;20103;-37
2021/12/23 18:43:59;;;;;;;41.13;20.92;;;3.80;99.90;;;;;;12534415;28;20135;-37
2021/12/23 18:50:02;;;;;;;41.20;22.90;;;3.80;99.90;;;;;;12536237;28;20548;-39
2021/12/23 18:56:08;;;;;;;44.25;23.30;;;3.80;99.90;;;;;;12538659;28;20083;-39
2021/12/23 19:02:30;;;;;;;49.00;25.95;;;3.80;99.90;;;;;;12536987;28;20052;-38
2021/12/23 19:08:35;;;;;;;52.20;26.80;;;3.70;99.90;;;;;;12535774;28;20149;-37
2021/12/23 19:14:37;;;;;;;55.75;27.60;;;3.70;99.90;;;;;;12537036;28;20045;-38
2021/12/23 19:20:40;;;;;;;57.25;28.52;;;3.70;99.90;;;;;;12537388;28;20053;-37
2021/12/23 19:26:44;;;;;;;59.75;29.40;;;3.70;99.90;;;;;;12536482;28;20048;-39
2021/12/23 19:32:46;;;;;;;59.23;29.33;;;3.80;99.90;;;;;;12531323;28;20136;-37
2021/12/23 19:38:48;;;;;;;63.35;30.17;;;3.80;99.90;;;;;;12533159;28;20072;-37
2021/12/23 19:44:50;;;;;;;62.13;32.05;;;3.90;99.90;;;;;;12535103;28;20068;-38
2021/12/23 19:50:52;;;;;;;61.58;31.05;;;3.90;99.90;;;;;;12529312;28;20040;-40
2021/12/23 19:56:59;;;;;;;70.10;33.83;;;3.90;99.90;;;;;;12529586;28;20068;-37
2021/12/23 20:03:05;;;;;;;73.60;34.47;;;4.00;99.90;;;;;;12522347;28;20044;-36
2021/12/23 20:09:08;;;;;;;75.43;36.35;;;4.00;99.90;;;;;;12518510;28;20504;-38
2021/12/23 20:15:10;;;;;;;76.85;37.78;;;4.00;99.90;;;;;;12519665;28;20048;-37
2021/12/23 20:21:12;;;;;;;80.50;37.47;;;4.00;99.90;;;;;;12524631;28;20080;-37
2021/12/23 20:27:14;;;;;;;82.45;40.60;;;4.00;99.90;;;;;;12529477;28;20080;-38
2021/12/23 20:33:18;;;;;;;80.97;39.35;;;4.10;99.90;;;;;;12527424;28;20087;-37
2021/12/23 20:39:20;;;;;;;83.30;40.10;;;4.20;99.90;;;;;;12531894;28;20064;-39
2021/12/23 20:45:23;;;;;;;86.78;39.22;;;4.10;99.90;;;;;;12529002;28;20561;-38
2021/12/23 20:51:29;;;;;;;85.15;39.88;;;4.10;99.90;;;;;;12536979;28;20045;-37
2021/12/23 20:57:34;;;;;;;79.63;36.50;;;4.00;99.90;;;;;;12529347;28;20045;-37
2021/12/23 21:03:39;;;;;;;71.18;34.85;;;4.10;99.90;;;;;;12539749;28;20041;-37
2021/12/23 21:09:43;;;;;;;70.78;35.05;;;4.20;99.90;;;;;;12549193;28;20087;-37
2021/12/23 21:15:48;;;;;;;67.18;32.72;;;4.20;99.90;;;;;;12531556;28;20059;-40
2021/12/23 21:21:54;;;;;;;66.35;31.13;;;4.20;99.90;;;;;;12541922;28;20075;-38
2021/12/23 21:27:59;;;;;;;54.70;28.83;;;4.20;99.90;;;;;;12551157;28;20083;-37
2021/12/23 21:34:04;;;;;;;56.67;28.52;;;4.30;99.90;;;;;;12551151;28;20497;-37
2021/12/23 21:40:11;;;;;;;50.10;25.95;;;4.20;99.90;;;;;;12546919;28;20048;-37
2021/12/23 21:46:15;;;;;;;51.65;23.95;;;4.30;99.90;;;;;;12552479;28;20064;-37
2021/12/23 21:52:21;;;;;;;43.00;23.95;;;4.40;99.90;;;;;;12544577;28;20048;-40
2021/12/23 21:58:26;;;;;;;38.42;19.98;;;4.40;99.90;;;;;;12545651;28;20875;-39
2021/12/23 22:04:29;;;;;;;28.60;16.52;;;4.40;99.90;;;;;;12543552;28;20821;-37
2021/12/23 22:10:35;;;;;;;30.73;17.00;;;4.50;99.90;;;;;;12542782;28;20052;-38
2021/12/23 22:16:47;;;;;;;26.42;14.90;;;4.60;99.90;;;;;;12536394;28;20067;-38
2021/12/23 22:22:50;;;;;;;21.85;12.73;;;4.70;99.90;;;;;;12544420;28;20156;-39
2021/12/23 22:28:53;;;;;;;16.15;10.75;;;4.60;99.90;;;;;;12540813;28;20495;-39
2021/12/23 22:34:55;;;;;;;14.90;10.57;;;4.80;99.90;;;;;;12590617;28;20706;-39
2021/12/23 22:40:57;;;;;;;16.50;11.00;;;4.70;99.90;;;;;;12587300;28;20048;-38
2021/12/23 22:47:00;;;;;;;15.75;10.00;;;4.70;99.90;;;;;;12590852;28;20048;-38
2021/12/23 22:53:02;;;;;;;14.68;9.48;;;4.80;99.90;;;;;;12590716;28;20073;-39
2021/12/23 22:59:10;;;;;;;17.15;11.25;;;4.80;99.90;;;;;;12590585;28;20533;-39
2021/12/23 23:05:12;;;;;;;15.68;10.27;;;4.80;99.90;;;;;;12590718;28;20040;-38
2021/12/23 23:11:22;;;;;;;14.50;9.98;;;4.90;99.90;;;;;;12590626;28;20044;-38
2021/12/23 23:17:24;;;;;;;14.48;10.30;;;4.90;99.90;;;;;;12573224;28;20048;-39
2021/12/23 23:23:27;;;;;;;17.58;10.63;;;5.00;99.90;;;;;;12589341;28;20144;-38
2021/12/23 23:35:55;;;;;;;16.30;10.68;;;5.10;99.90;;;;;;12539362;28;20056;-38
2021/12/23 23:41:57;;;;;;;15.35;10.20;;;5.10;99.90;;;;;;12536975;28;20081;-39
2021/12/23 23:48:03;;;;;;;13.95;9.65;;;5.20;99.90;;;;;;12540144;28;20529;-39
2021/12/23 23:54:06;;;;;;;16.40;9.60;;;5.30;99.90;;;;;;12540217;28;20056;-40
